createdAt,value
2023-01-30T00:04:31.428Z,7.92
2023-01-30T00:09:34.255Z,8.04
2023-01-30T00:14:38.409Z,7.96
2023-01-30T00:19:41.262Z,7.98
2023-01-30T00:24:44.172Z,7.92
2023-01-30T00:29:57.696Z,7.98
2023-01-30T00:35:07.739Z,7.88
2023-01-30T00:40:11.910Z,7.94
2023-01-30T00:45:33.748Z,7.92
2023-01-30T00:50:43.391Z,7.85
2023-01-30T00:55:48.054Z,7.68
2023-01-30T01:00:52.640Z,7.63
2023-01-30T01:05:55.493Z,7.63
2023-01-30T01:10:59.587Z,7.51
2023-01-30T01:16:03.962Z,7.43
2023-01-30T01:21:07.188Z,7.31
2023-01-30T01:26:10.023Z,7.33
2023-01-30T01:31:16.201Z,7.32
2023-01-30T01:36:42.481Z,7.32
2023-01-30T01:41:42.212Z,7.27
2023-01-30T01:46:50.004Z,7.26
2023-01-30T01:51:56.819Z,7.22
2023-01-30T01:57:02.898Z,7.24
2023-01-30T02:02:11.288Z,7.24
2023-01-30T02:07:14.478Z,7.23
2023-01-30T02:12:17.406Z,7.27
2023-01-30T02:17:21.700Z,7.26
2023-01-30T02:22:38.442Z,7.34
2023-01-30T02:28:04.788Z,7.39
2023-01-30T02:33:14.924Z,7.38
2023-01-30T02:38:28.812Z,7.50
2023-01-30T02:43:35.310Z,7.52
2023-01-30T02:48:43.277Z,7.55
2023-01-30T02:53:48.019Z,7.58
2023-01-30T02:58:55.357Z,7.62
2023-01-30T03:04:18.322Z,7.69
2023-01-30T03:09:28.547Z,7.73
2023-01-30T03:14:34.806Z,7.76
2023-01-30T03:19:40.889Z,7.74
2023-01-30T03:24:43.765Z,7.74
2023-01-30T03:29:46.819Z,7.75
2023-01-30T03:34:51.141Z,7.77
2023-01-30T03:39:54.349Z,7.73
2023-01-30T03:44:57.456Z,7.75
2023-01-30T03:50:03.042Z,7.79
2023-01-30T03:55:08.735Z,7.78
2023-01-30T04:00:12.922Z,7.75
2023-01-30T04:05:26.661Z,7.72
2023-01-30T04:10:34.574Z,7.67
2023-01-30T04:15:37.568Z,7.64
2023-01-30T04:21:17.596Z,7.59
2023-01-30T04:26:20.807Z,7.65
2023-01-30T04:31:24.120Z,7.59
2023-01-30T04:36:39.133Z,7.56
2023-01-30T04:41:42.146Z,7.29
2023-01-30T04:46:45.813Z,7.04
2023-01-30T04:51:51.138Z,7.01
2023-01-30T04:56:54.002Z,6.87
2023-01-30T05:01:56.980Z,6.68
2023-01-30T05:07:02.783Z,6.46
2023-01-30T05:12:06.070Z,6.25
2023-01-30T05:17:09.335Z,6.07
2023-01-30T05:22:13.613Z,5.93
2023-01-30T05:27:16.522Z,5.90
2023-01-30T05:32:20.037Z,5.89
2023-01-30T05:37:25.773Z,5.81
2023-01-30T05:42:28.663Z,5.90
2023-01-30T05:47:31.420Z,6.03
2023-01-30T05:52:35.651Z,6.13
2023-01-30T05:57:38.466Z,6.18
2023-01-30T06:02:41.273Z,6.23
2023-01-30T06:07:45.527Z,6.38
2023-01-30T06:12:48.361Z,6.44
2023-01-30T06:17:52.767Z,6.37
2023-01-30T06:22:56.881Z,6.32
2023-01-30T06:27:59.760Z,6.23
2023-01-30T06:33:02.591Z,6.12
2023-01-30T06:38:09.573Z,5.96
2023-01-30T06:43:12.488Z,5.95
2023-01-30T06:48:15.320Z,5.95
2023-01-30T06:53:19.534Z,5.96
2023-01-30T06:58:22.407Z,5.94
2023-01-30T07:03:25.500Z,5.90
2023-01-30T07:08:29.912Z,5.80
2023-01-30T07:13:32.832Z,5.71
2023-01-30T07:18:35.859Z,5.79
2023-01-30T07:23:40.264Z,5.83
2023-01-30T07:28:45.816Z,5.31
2023-01-30T07:33:48.720Z,5.72
2023-01-30T07:38:52.967Z,5.68
2023-01-30T07:43:55.953Z,5.77
2023-01-30T07:48:59.858Z,5.84
2023-01-30T07:54:04.892Z,5.82
2023-01-30T07:59:07.772Z,5.81
2023-01-30T08:04:10.587Z,5.87
2023-01-30T08:09:14.884Z,5.95
2023-01-30T08:14:17.730Z,5.98
2023-01-30T08:19:20.867Z,6.09
2023-01-30T08:24:25.286Z,6.20
2023-01-30T08:29:28.214Z,6.33
2023-01-30T08:34:31.338Z,6.44
2023-01-30T08:39:37.219Z,6.53
2023-01-30T08:44:40.285Z,6.48
2023-01-30T08:49:43.116Z,6.52
2023-01-30T08:54:47.405Z,6.63
2023-01-30T08:59:51.379Z,6.57
2023-01-30T09:04:54.310Z,6.75
2023-01-30T09:09:58.606Z,6.60
2023-01-30T09:15:01.495Z,6.64
2023-01-30T09:20:05.672Z,6.73
2023-01-30T09:25:10.660Z,6.79
2023-01-30T09:30:14.154Z,6.90
2023-01-30T09:35:17.073Z,6.80
2023-01-30T09:40:23.783Z,6.77
2023-01-30T09:45:46.851Z,6.87
2023-01-30T09:51:03.981Z,6.76
2023-01-30T09:56:09.582Z,6.73
2023-01-30T10:01:20.029Z,6.87
2023-01-30T10:06:23.851Z,6.88
2023-01-30T10:11:38.839Z,6.74
2023-01-30T10:16:46.102Z,6.73
2023-01-30T10:21:53.940Z,6.98
2023-01-30T10:27:03.011Z,7.31
2023-01-30T10:32:13.963Z,7.20
2023-01-30T10:37:20.651Z,7.09
2023-01-30T10:42:29.523Z,7.20
2023-01-30T10:47:47.028Z,7.13
2023-01-30T10:52:55.166Z,6.97
2023-01-30T10:58:03.879Z,7.12
2023-01-30T11:03:23.563Z,7.22
2023-01-30T11:08:28.149Z,7.28
2023-01-30T11:13:33.816Z,7.25
2023-01-30T11:24:17.029Z,7.15
2023-01-30T11:29:30.061Z,7.37
2023-01-30T11:34:33.459Z,7.59
2023-01-30T11:39:36.494Z,7.51
2023-01-30T11:44:42.531Z,7.57
2023-01-30T11:50:01.465Z,7.67
2023-01-30T11:55:15.665Z,7.85
2023-01-30T12:00:23.885Z,7.78
2023-01-30T12:05:31.186Z,7.63
2023-01-30T12:10:34.105Z,7.67
2023-01-30T12:15:39.111Z,7.93
2023-01-30T12:20:48.002Z,7.80
2023-01-30T12:25:58.770Z,7.73
2023-01-30T12:31:08.421Z,7.76
2023-01-30T12:36:18.390Z,7.96
2023-01-30T12:41:36.082Z,8.32
2023-01-30T12:46:51.758Z,8.67
2023-01-30T12:52:08.673Z,8.62
2023-01-30T12:57:18.974Z,8.64
2023-01-30T13:02:45.099Z,8.64
2023-01-30T13:07:56.401Z,8.41
2023-01-30T13:13:10.344Z,7.93
2023-01-30T13:18:16.951Z,7.70
2023-01-30T13:23:23.028Z,7.94
2023-01-30T13:28:27.650Z,8.22
2023-01-30T13:33:33.457Z,8.40
2023-01-30T13:38:37.567Z,8.33
2023-01-30T13:43:43.115Z,8.23
2023-01-30T13:48:56.893Z,8.21
2023-01-30T13:54:05.626Z,8.20
2023-01-30T13:59:14.614Z,8.06
2023-01-30T14:04:50.936Z,8.05
2023-01-30T14:10:08.233Z,8.04
2023-01-30T14:15:25.571Z,8.03
2023-01-30T14:20:31.535Z,8.04
2023-01-30T14:25:49.959Z,7.85
2023-01-30T14:30:53.716Z,7.86
2023-01-30T14:36:38.378Z,7.95
2023-01-30T14:41:42.704Z,8.00
2023-01-30T14:46:55.007Z,8.01
2023-01-30T14:52:01.648Z,7.89
2023-01-30T14:57:06.823Z,7.89
2023-01-30T15:02:23.994Z,7.80
2023-01-30T15:07:29.726Z,7.52
2023-01-30T15:13:03.681Z,7.26
2023-01-30T15:18:16.772Z,7.27
2023-01-30T15:23:40.642Z,7.02
2023-01-30T15:28:51.189Z,6.83
2023-01-30T15:33:56.799Z,6.84
2023-01-30T15:39:04.437Z,6.81
2023-01-30T15:44:25.972Z,6.77
2023-01-30T15:49:53.395Z,6.74
2023-01-30T15:55:02.201Z,6.65
2023-01-30T16:00:08.855Z,6.70
2023-01-30T16:05:20.039Z,6.63
2023-01-30T16:10:24.722Z,6.64
2023-01-30T16:15:32.773Z,6.55
2023-01-30T16:20:58.938Z,6.54
2023-01-30T16:26:04.816Z,6.50
2023-01-30T16:31:10.827Z,6.44
2023-01-30T16:36:33.805Z,6.45
2023-01-30T16:41:39.417Z,6.44
2023-01-30T16:47:00.125Z,6.49
2023-01-30T16:52:05.424Z,6.56
2023-01-30T16:57:08.511Z,6.51
2023-01-30T17:02:25.859Z,6.48
2023-01-30T17:07:35.648Z,6.43
2023-01-30T17:12:48.284Z,6.39
2023-01-30T17:17:52.519Z,6.34
2023-01-30T17:22:57.827Z,6.25
2023-01-30T17:28:00.763Z,6.22
2023-01-30T17:33:05.086Z,6.21
2023-01-30T17:38:08.072Z,6.24
2023-01-30T17:43:13.115Z,6.22
2023-01-30T17:48:17.391Z,6.29
2023-01-30T17:53:20.288Z,6.39
2023-01-30T17:58:23.390Z,6.31
2023-01-30T18:03:27.624Z,6.16
2023-01-30T18:08:30.460Z,5.99
2023-01-30T18:13:34.992Z,5.86
2023-01-30T18:18:39.850Z,5.80
2023-01-30T18:23:42.791Z,5.75
2023-01-30T18:28:45.782Z,5.74
2023-01-30T18:33:49.974Z,5.74
2023-01-30T18:38:53.597Z,5.79
2023-01-30T18:43:57.416Z,5.84
2023-01-30T18:49:01.661Z,5.96
2023-01-30T18:54:04.736Z,6.14
2023-01-30T18:59:07.905Z,6.27
2023-01-30T19:04:12.915Z,6.41
2023-01-30T19:09:18.092Z,6.40
2023-01-30T19:14:20.962Z,6.35
2023-01-30T19:19:25.223Z,6.25
2023-01-30T19:24:28.070Z,6.08
2023-01-30T19:29:30.915Z,5.90
2023-01-30T19:34:35.124Z,5.88
2023-01-30T19:39:38.052Z,5.82
2023-01-30T19:44:41.234Z,5.80
2023-01-30T19:49:45.413Z,5.77
2023-01-30T19:54:48.369Z,5.70
2023-01-30T19:59:51.192Z,5.64
2023-01-30T20:04:55.332Z,5.62
2023-01-30T20:09:58.135Z,5.56
2023-01-30T20:15:00.959Z,5.55
2023-01-30T20:20:06.362Z,5.52
2023-01-30T20:25:10.686Z,5.42
2023-01-30T20:30:15.422Z,5.41
2023-01-30T20:35:20.430Z,5.36
2023-01-30T20:40:23.228Z,5.32
2023-01-30T20:45:26.141Z,5.31
2023-01-30T20:50:30.352Z,5.25
2023-01-30T20:55:34.903Z,5.26
2023-01-30T21:00:38.186Z,5.22
2023-01-30T21:05:42.489Z,5.24
2023-01-30T21:10:47.177Z,5.24
2023-01-30T21:15:50.164Z,5.22
2023-01-30T21:20:54.394Z,5.19
2023-01-30T21:25:57.790Z,5.17
2023-01-30T21:31:05.725Z,5.19
2023-01-30T21:36:10.925Z,5.11
2023-01-30T21:41:35.929Z,5.15
2023-01-30T21:46:40.248Z,5.23
2023-01-30T21:51:45.067Z,5.24
2023-01-30T21:56:48.136Z,5.27
2023-01-30T22:01:51.002Z,5.31
2023-01-30T22:06:55.561Z,5.43
2023-01-30T22:11:58.473Z,5.51
2023-01-30T22:17:01.443Z,5.52
2023-01-30T22:22:05.738Z,5.51
2023-01-30T22:27:08.567Z,5.44
2023-01-30T22:32:11.382Z,5.41
2023-01-30T22:37:16.281Z,5.37
2023-01-30T22:42:19.133Z,5.29
2023-01-30T22:47:21.901Z,5.38
2023-01-30T22:52:26.161Z,5.34
2023-01-30T22:57:29.031Z,5.11
2023-01-30T23:02:31.868Z,4.88
2023-01-30T23:07:36.757Z,4.70
2023-01-30T23:12:57.357Z,4.57
2023-01-30T23:18:17.744Z,4.33
2023-01-30T23:23:21.987Z,4.34
2023-01-30T23:28:24.771Z,4.25
2023-01-30T23:33:29.196Z,3.98
2023-01-30T23:38:33.412Z,4.14
2023-01-30T23:43:36.446Z,4.10
2023-01-30T23:48:39.263Z,4.15
2023-01-30T23:53:43.810Z,4.29
2023-01-30T23:58:47.104Z,4.24
